| time (UTC) | temp F | wind direction | speed MPH | gust MPH | rain 1hr in | rain 24hr in | rain mn in | humidity % | barometer mb |
| 20260905151111 | 72 | 194 | 0.0 | 1.0 | 0.00 | 0.54 | 0.40 | 96 | 1011.7 |
| 20260905150047 | 72 | 194 | 0.0 | 0.0 | 0.00 | 0.54 | 0.40 | 96 | 1011.7 |
| 20260905145059 | 71 | 194 | 0.0 | 0.0 | 0.00 | 0.54 | 0.40 | 96 | 1011.8 |
| 20260905144035 | 71 | 194 | 0.0 | 0.0 | 0.00 | 0.54 | 0.40 | 97 | 1011.8 |
| 20260905143013 | 70 | 194 | 0.0 | 0.0 | 0.00 | 0.54 | 0.40 | 96 | 1011.6 |
| 20260905142021 | 70 | 194 | 0.0 | 0.0 | 0.00 | 0.54 | 0.40 | 97 | 1011.6 |
| 20260905141032 | 69 | 194 | 0.0 | 0.0 | 0.00 | 0.54 | 0.40 | 96 | 1011.3 |
| 20260905140043 | 69 | 194 | 0.0 | 0.0 | 0.00 | 0.54 | 0.40 | 97 | 1011.2 |
| 20260905135050 | 69 | 194 | 0.0 | 0.0 | 0.00 | 0.54 | 0.40 | 96 | 1011.5 |
| 20260905134046 | 69 | 194 | 0.0 | 0.0 | 0.00 | 0.54 | 0.40 | 96 | 1011.7 |
| 20260905133102 | 69 | 194 | 0.0 | 0.0 | 0.00 | 0.54 | 0.40 | 96 | 1011.8 |
| 20260905132104 | 68 | 194 | 0.0 | 0.0 | 0.00 | 0.54 | 0.40 | 96 | 1011.7 |
| 20260905131043 | 68 | 194 | 0.0 | 0.0 | 0.00 | 0.54 | 0.40 | 96 | 1011.9 |
| 20260905123729 | 68 | 194 | 0.0 | 0.0 | 0.00 | 0.54 | 0.40 | 96 | 1012.1 |
| 20260905120440 | 68 | 194 | 0.0 | 0.0 | 0.05 | 0.54 | 0.40 | 96 | 1012.5 |
| 20260905114340 | 69 | 205 | 0.0 | 3.0 | 0.10 | 0.54 | 0.38 | 96 | 1011.6 |
| 20260905113352 | 69 | 281 | 0.0 | 0.0 | 0.06 | 0.51 | 0.37 | 96 | 1012.2 |
| 20260905112340 | 69 | 281 | 0.0 | 0.0 | 0.08 | 0.50 | 0.36 | 96 | 1012.0 |
| 20260905111326 | 69 | 281 | 0.0 | 0.0 | 0.09 | 0.50 | 0.35 | 96 | 1012.2 |
| 20260905110316 | 69 | 281 | 0.0 | 0.0 | 0.09 | 0.47 | 0.33 | 96 | 1013.0 |
| 20260905105332 | 69 | 281 | 0.0 | 0.0 | 0.12 | 0.47 | 0.32 | 96 | 1013.3 |
| 20260905104341 | 69 | 281 | 0.0 | 0.0 | 0.10 | 0.44 | 0.30 | 96 | 1013.5 |
| 20260905103326 | 69 | 280 | 0.0 | 0.0 | 0.08 | 0.42 | 0.27 | 96 | 1013.4 |
| 20260905102338 | 69 | 280 | 0.0 | 1.0 | 0.13 | 0.41 | 0.27 | 96 | 1013.0 |
| 20260905100255 | 69 | 280 | 0.0 | 2.0 | 0.10 | 0.39 | 0.25 | 95 | 1013.2 |
| 20260905094219 | 69 | 254 | 0.0 | 0.0 | 0.06 | 0.36 | 0.21 | 95 | 1013.0 |
| 20260905092024 | 70 | 302 | 2.0 | 6.0 | 0.15 | 0.29 | 0.16 | 95 | 1013.2 |
| 20260905090957 | 70 | 273 | 0.0 | 5.0 | 0.00 | 0.27 | 0.12 | 95 | 1012.7 |
| 20260905090017 | 70 | 339 | 0.0 | 0.0 | 0.00 | 0.27 | 0.12 | 94 | 1011.0 |
| 20260905084945 | 70 | 339 | 0.0 | 0.0 | 0.00 | 0.27 | 0.12 | 94 | 1011.6 |
| 20260905084008 | 70 | 339 | 0.0 | 0.0 | 0.06 | 0.25 | 0.10 | 94 | 1011.0 |
| 20260905083033 | 71 | 339 | 0.0 | 0.0 | 0.31 | 0.24 | 0.10 | 93 | 1011.3 |
| 20260905082003 | 71 | 339 | 0.0 | 0.0 | 0.30 | 0.17 | 0.03 | 93 | 1012.1 |
| 20260905074625 | 72 | 280 | 2.0 | 6.0 | 0.00 | 0.14 | 0.00 | 96 | 1012.0 |
| 20260905073632 | 73 | 155 | 0.0 | 1.0 | 0.00 | 0.14 | 0.00 | 96 | 1011.9 |
| 20260905072651 | 72 | 154 | 0.0 | 0.0 | 0.00 | 0.14 | 0.00 | 96 | 1011.4 |
| 20260905070515 | 72 | 154 | 0.0 | 0.0 | 0.00 | 0.14 | 0.00 | 96 | 1011.7 |
| 20260905065539 | 72 | 154 | 0.0 | 0.0 | 0.00 | 0.14 | 0.00 | 96 | 1011.2 |
| 20260905064540 | 71 | 154 | 0.0 | 0.0 | 0.00 | 0.14 | 0.00 | 96 | 1011.4 |
| 20260905063512 | 71 | 154 | 0.0 | 0.0 | 0.00 | 0.14 | 0.00 | 95 | 1011.4 |
| 20260905061407 | 71 | 154 | 0.0 | 0.0 | 0.00 | 0.14 | 0.00 | 95 | 1011.3 |
| 20260905060339 | 71 | 154 | 0.0 | 0.0 | 0.00 | 0.14 | 0.00 | 95 | 1011.6 |
| 20260905055350 | 71 | 154 | 0.0 | 0.0 | 0.00 | 0.14 | 0.00 | 95 | 1011.8 |
| 20260905054336 | 71 | 154 | 0.0 | 0.0 | 0.00 | 0.14 | 0.00 | 95 | 1011.9 |
| 20260905052251 | 72 | 154 | 0.0 | 0.0 | 0.00 | 0.14 | 0.00 | 95 | 1011.9 |
| 20260905051227 | 72 | 154 | 0.0 | 0.0 | 0.00 | 0.14 | 0.00 | 95 | 1012.1 |
| 20260905050212 | 72 | 154 | 0.0 | 0.0 | 0.00 | 0.14 | 0.00 | 95 | 1012.3 |
| 20260905045233 | 72 | 154 | 0.0 | 0.0 | 0.00 | 0.14 | 0.00 | 95 | 1012.3 |
| 20260905044241 | 72 | 154 | 0.0 | 0.0 | 0.00 | 0.14 | 0.00 | 95 | 1012.4 |
| 20260905043213 | 72 | 154 | 0.0 | 0.0 | 0.00 | 0.14 | 0.00 | 95 | 1012.4 |
| 20260905042150 | 72 | 154 | 0.0 | 0.0 | 0.00 | 0.14 | 0.00 | 95 | 1012.5 |
| 20260905041139 | 72 | 154 | 0.0 | 0.0 | 0.00 | 0.14 | 0.00 | 94 | 1012.6 |
| 20260905040202 | 72 | 154 | 0.0 | 0.0 | 0.00 | 0.14 | 0.00 | 94 | 1012.7 |
| 20260905034054 | 72 | 154 | 0.0 | 0.0 | 0.00 | 0.14 | 0.15 | 94 | 1012.7 |
| 20260905033027 | 72 | 154 | 0.0 | 0.0 | 0.00 | 0.14 | 0.15 | 94 | 1012.7 |
| 20260905032036 | 72 | 154 | 0.0 | 0.0 | 0.00 | 0.14 | 0.15 | 94 | 1012.7 |
| 20260905031044 | 73 | 154 | 0.0 | 0.0 | 0.00 | 0.14 | 0.15 | 94 | 1012.7 |
| 20260905030101 | 73 | 154 | 0.0 | 0.0 | 0.00 | 0.14 | 0.15 | 94 | 1012.8 |
| 20260905025032 | 73 | 154 | 0.0 | 0.0 | 0.00 | 0.14 | 0.15 | 94 | 1012.7 |
| 20260905024002 | 73 | 154 | 0.0 | 0.0 | 0.00 | 0.14 | 0.15 | 93 | 1012.8 |
| 20260905023001 | 73 | 154 | 0.0 | 0.0 | 0.00 | 0.14 | 0.15 | 93 | 1012.8 |
| 20260905021943 | 73 | 154 | 0.0 | 0.0 | 0.00 | 0.14 | 0.15 | 93 | 1012.7 |
| 20260905020946 | 73 | 154 | 0.0 | 0.0 | 0.00 | 0.14 | 0.15 | 93 | 1012.6 |
| 20260905020003 | 73 | 154 | 0.0 | 0.0 | 0.00 | 0.14 | 0.15 | 93 | 1012.7 |
| 20260905013836 | 74 | 154 | 0.0 | 0.0 | 0.00 | 0.14 | 0.15 | 92 | 1012.4 |
| 20260905011645 | 74 | 154 | 0.0 | 0.0 | 0.00 | 0.14 | 0.15 | 91 | 1012.4 |
| 20260905010619 | 75 | 154 | 0.0 | 0.0 | 0.00 | 0.14 | 0.15 | 91 | 1012.4 |
| 20260905005603 | 75 | 154 | 0.0 | 0.0 | 0.00 | 0.14 | 0.15 | 90 | 1012.2 |
| 20260905004611 | 76 | 154 | 0.0 | 0.0 | 0.00 | 0.14 | 0.15 | 89 | 1012.3 |
| 20260905003622 | 76 | 154 | 0.0 | 0.0 | 0.00 | 0.14 | 0.15 | 89 | 1012.1 |
| 20260905002609 | 77 | 154 | 0.0 | 0.0 | 0.00 | 0.14 | 0.15 | 88 | 1012.0 |
| 20260905001634 | 77 | 154 | 0.0 | 0.0 | 0.00 | 0.14 | 0.15 | 87 | 1012.0 |
| 20260904235543 | 79 | 154 | 0.0 | 0.0 | 0.00 | 0.14 | 0.15 | 84 | 1011.8 |
| 20260904234548 | 80 | 154 | 0.0 | 0.0 | 0.00 | 0.14 | 0.15 | 83 | 1011.9 |
| 20260904233545 | 80 | 154 | 0.0 | 0.0 | 0.00 | 0.14 | 0.15 | 82 | 1011.9 |
| 20260904232535 | 80 | 154 | 0.0 | 0.0 | 0.00 | 0.14 | 0.15 | 80 | 1011.9 |
| 20260904231542 | 80 | 154 | 0.0 | 0.0 | 0.00 | 0.14 | 0.15 | 80 | 1011.9 |
| 20260904230517 | 80 | 154 | 0.0 | 0.0 | 0.00 | 0.14 | 0.15 | 81 | 1011.9 |
| 20260904225510 | 80 | 154 | 0.0 | 0.0 | 0.00 | 0.14 | 0.15 | 81 | 1012.0 |
| 20260904224449 | 80 | 154 | 0.0 | 0.0 | 0.00 | 0.14 | 0.15 | 81 | 1011.9 |
| 20260904222319 | 80 | 154 | 0.0 | 0.0 | 0.00 | 0.14 | 0.15 | 82 | 1011.9 |
| 20260904221336 | 79 | 154 | 0.0 | 0.0 | 0.00 | 0.14 | 0.15 | 82 | 1011.9 |
| 20260904220347 | 79 | 154 | 0.0 | 0.0 | 0.00 | 0.14 | 0.15 | 84 | 1011.8 |
| 20260904215356 | 78 | 154 | 0.0 | 0.0 | 0.00 | 0.14 | 0.15 | 84 | 1011.3 |
| 20260904213229 | 78 | 154 | 0.0 | 0.0 | 0.00 | 0.14 | 0.15 | 83 | 1010.5 |
| 20260904212203 | 78 | 154 | 0.0 | 0.0 | 0.00 | 0.14 | 0.15 | 82 | 1010.2 |
| 20260904211159 | 78 | 191 | 0.0 | 2.0 | 0.00 | 0.14 | 0.15 | 82 | 1009.5 |
| 20260904210135 | 78 | 83 | 0.0 | 2.0 | 0.00 | 0.14 | 0.15 | 82 | 1010.2 |
| 20260904205102 | 79 | 82 | 0.0 | 0.0 | 0.00 | 0.14 | 0.15 | 83 | 1010.6 |
| 20260904204112 | 79 | 80 | 0.0 | 0.0 | 0.00 | 0.14 | 0.15 | 83 | 1011.8 |
| 20260904203134 | 79 | 80 | 0.0 | 0.0 | 0.00 | 0.14 | 0.15 | 82 | 1012.1 |
| 20260904200955 | 79 | 80 | 0.0 | 0.0 | 0.00 | 0.14 | 0.15 | 81 | 1013.0 |
| 20260904194830 | 79 | 80 | 0.0 | 0.0 | 0.00 | 0.14 | 0.15 | 81 | 1013.4 |
| 20260904193823 | 79 | 80 | 0.0 | 0.0 | 0.00 | 0.14 | 0.15 | 81 | 1013.3 |
| 20260904192813 | 79 | 80 | 0.0 | 4.0 | 0.00 | 0.14 | 0.15 | 81 | 1013.3 |
| 20260904190636 | 78 | 324 | 0.0 | 2.0 | 0.00 | 0.14 | 0.15 | 85 | 1013.7 |
| 20260904185621 | 78 | 80 | 0.0 | 1.0 | 0.00 | 0.14 | 0.15 | 87 | 1014.0 |
| 20260904184615 | 78 | 59 | 0.0 | 2.0 | 0.00 | 0.14 | 0.15 | 89 | 1014.1 |
| 20260904183602 | 78 | 44 | 0.0 | 1.0 | 0.00 | 0.14 | 0.15 | 91 | 1014.2 |
| 20260904182605 | 78 | 61 | 0.0 | 3.0 | 0.00 | 0.14 | 0.15 | 94 | 1014.2 |
| 20260904181603 | 77 | 292 | 0.0 | 0.0 | 0.00 | 0.14 | 0.15 | 94 | 1014.2 |
| 20260904180614 | 76 | 292 | 0.0 | 0.0 | 0.00 | 0.14 | 0.15 | 93 | 1014.1 |
| 20260904175611 | 75 | 325 | 0.0 | 2.0 | 0.00 | 0.14 | 0.15 | 93 | 1014.1 |
| 20260904174550 | 74 | 85 | 0.0 | 0.0 | 0.04 | 0.14 | 0.15 | 92 | 1014.1 |
| 20260904173537 | 74 | 84 | 0.0 | 2.0 | 0.17 | 0.14 | 0.15 | 91 | 1013.8 |
| 20260904172532 | 75 | 296 | 0.0 | 0.0 | 0.00 | 0.06 | 0.06 | 91 | 1014.5 |
| 20260904171538 | 76 | 298 | 0.0 | 0.0 | 0.04 | 0.06 | 0.06 | 91 | 1014.0 |
| 20260904170509 | 76 | 298 | 0.0 | 1.0 | 0.12 | 0.06 | 0.06 | 90 | 1013.8 |
| 20260904165435 | 77 | 299 | 0.0 | 2.0 | 0.17 | 0.02 | 0.02 | 88 | 1014.6 |
| 20260904164442 | 79 | 299 | 0.0 | 1.0 | 0.00 | 0.00 | 0.00 | 86 | 1014.8 |
| 20260904163428 | 80 | 299 | 0.0 | 0.0 | 0.00 | 0.00 | 0.00 | 84 | 1014.6 |
| 20260904162428 | 81 | 303 | 0.0 | 0.0 | 0.00 | 0.00 | 0.00 | 80 | 1014.9 |
| 20260904161437 | 81 | 303 | 0.0 | 0.0 | 0.00 | 0.00 | 0.00 | 81 | 1015.1 |
| 20260904160426 | 81 | 303 | 0.0 | 0.0 | 0.00 | 0.00 | 0.00 | 80 | 1014.5 |
| 20260904155437 | 81 | 303 | 0.0 | 0.0 | 0.00 | 0.00 | 0.00 | 80 | 1014.5 |
| 20260904153250 | 82 | 303 | 0.0 | 1.0 | 0.00 | 0.00 | 0.00 | 81 | 1014.7 |
| 20260904152217 | 82 | 302 | 0.0 | 0.0 | 0.00 | 0.00 | 0.00 | 80 | 1014.4 |